KOAK/OAK METAR and TAF weather

Enter ICAO airport designator
Station Type Date Time Source
KOAK METAR 2020/12/06 01:53 UTC NOAA

KOAK 060153Z 00000KT 9SM FEW010 BKN200 12/08 A3027 RMK AO2 SLP250 T01220078


Station Type Date Time Source
KOAK Decoded METAR 2020/12/06 01:53 UTC NOAA

METRO OAKLAND INTERNATIONAL AIRPORT , CA, United States (KOAK) 37-43N 122-14W 26M
Dec 05, 2020 - 08:53 PM EST / 2020.12.06 0153 UTC
Wind: Calm:0
Visibility: 9 mile(s):0
Sky conditions: mostly cloudy
Temperature: 54.0 F (12.2 C)
Dew Point: 46.0 F (7.8 C)
Relative Humidity: 74%
Pressure (altimeter): 30.27 in. Hg (1025 hPa)
ob: KOAK 060153Z 00000KT 9SM FEW010 BKN200 12/08 A3027 RMK AO2 SLP250 T01220078
cycle: 2

Station Type Date Time Source
KOAK TAF 2020/12/05 18:27 UTC NOAA

TAF KOAK 051725Z 0518/0624 00000KT P6SM FEW200
FM051900 30009KT P6SM FEW015 SCT150
FM060300 VRB03KT P6SM FEW015 SCT030 BKN150
FM060700 VRB04KT P6SM FEW008 BKN025 OVC050
FM062000 28006KT P6SM SCT025

Example: see airport list